sensor_id;sensor_type;location;lat;lon;timestamp;temperature;humidity
4757;DHT22;2392;52.578;13.426;2023-07-29T00:02:07;18.70;99.90
4757;DHT22;2392;52.578;13.426;2023-07-29T00:04:34;18.60;99.90
4757;DHT22;2392;52.578;13.426;2023-07-29T00:07:01;18.70;99.90
4757;DHT22;2392;52.578;13.426;2023-07-29T00:09:29;18.60;99.90
4757;DHT22;2392;52.578;13.426;2023-07-29T00:11:56;18.60;99.90
4757;DHT22;2392;52.578;13.426;2023-07-29T00:14:23;18.60;99.90
4757;DHT22;2392;52.578;13.426;2023-07-29T00:16:51;18.60;99.90
4757;DHT22;2392;52.578;13.426;2023-07-29T00:19:18;18.50;99.90
4757;DHT22;2392;52.578;13.426;2023-07-29T00:21:49;18.40;99.90
4757;DHT22;2392;52.578;13.426;2023-07-29T00:24:16;18.40;99.90
4757;DHT22;2392;52.578;13.426;2023-07-29T00:26:43;18.40;99.90
4757;DHT22;2392;52.578;13.426;2023-07-29T00:29:10;18.30;99.90
4757;DHT22;2392;52.578;13.426;2023-07-29T00:31:40;18.30;99.90
4757;DHT22;2392;52.578;13.426;2023-07-29T00:34:08;18.20;99.90
4757;DHT22;2392;52.578;13.426;2023-07-29T00:36:35;18.20;99.90
4757;DHT22;2392;52.578;13.426;2023-07-29T00:39:02;18.20;99.90
4757;DHT22;2392;52.578;13.426;2023-07-29T00:41:29;18.20;99.90
4757;DHT22;2392;52.578;13.426;2023-07-29T00:43:56;18.20;99.90
4757;DHT22;2392;52.578;13.426;2023-07-29T00:46:24;18.20;99.90
4757;DHT22;2392;52.578;13.426;2023-07-29T00:48:51;18.20;99.90
4757;DHT22;2392;52.578;13.426;2023-07-29T00:51:20;18.10;99.90
4757;DHT22;2392;52.578;13.426;2023-07-29T00:53:48;18.10;99.90
4757;DHT22;2392;52.578;13.426;2023-07-29T00:56:15;18.10;99.90
4757;DHT22;2392;52.578;13.426;2023-07-29T00:58:43;18.10;99.90
4757;DHT22;2392;52.578;13.426;2023-07-29T01:01:10;18.10;99.90
4757;DHT22;2392;52.578;13.426;2023-07-29T01:03:37;18.10;99.90
4757;DHT22;2392;52.578;13.426;2023-07-29T01:06:12;18.10;99.90
4757;DHT22;2392;52.578;13.426;2023-07-29T01:08:49;18.00;99.90
4757;DHT22;2392;52.578;13.426;2023-07-29T01:11:30;18.00;99.90
4757;DHT22;2392;52.578;13.426;2023-07-29T01:14:05;17.90;99.90
4757;DHT22;2392;52.578;13.426;2023-07-29T01:16:40;17.80;99.90
4757;DHT22;2392;52.578;13.426;2023-07-29T01:21:57;17.80;99.90
4757;DHT22;2392;52.578;13.426;2023-07-29T01:24:26;17.90;99.90
4757;DHT22;2392;52.578;13.426;2023-07-29T01:26:53;17.90;99.90
4757;DHT22;2392;52.578;13.426;2023-07-29T01:29:20;17.90;99.90
4757;DHT22;2392;52.578;13.426;2023-07-29T01:31:51;17.90;99.90
4757;DHT22;2392;52.578;13.426;2023-07-29T01:34:26;17.80;99.90
4757;DHT22;2392;52.578;13.426;2023-07-29T01:36:54;17.80;99.90
4757;DHT22;2392;52.578;13.426;2023-07-29T01:39:25;17.70;99.90
4757;DHT22;2392;52.578;13.426;2023-07-29T01:41:56;17.80;99.90
4757;DHT22;2392;52.578;13.426;2023-07-29T01:44:23;17.80;99.90
4757;DHT22;2392;52.578;13.426;2023-07-29T01:46:50;17.80;99.90
4757;DHT22;2392;52.578;13.426;2023-07-29T01:49:17;17.80;99.90
4757;DHT22;2392;52.578;13.426;2023-07-29T01:51:44;17.80;99.90
4757;DHT22;2392;52.578;13.426;2023-07-29T01:54:11;17.80;99.90
4757;DHT22;2392;52.578;13.426;2023-07-29T01:56:39;17.70;99.90
4757;DHT22;2392;52.578;13.426;2023-07-29T01:59:07;17.70;99.90
4757;DHT22;2392;52.578;13.426;2023-07-29T02:01:34;17.70;99.90
4757;DHT22;2392;52.578;13.426;2023-07-29T02:04:01;17.60;99.90
4757;DHT22;2392;52.578;13.426;2023-07-29T02:06:28;17.60;99.90
4757;DHT22;2392;52.578;13.426;2023-07-29T02:08:55;17.60;99.90
4757;DHT22;2392;52.578;13.426;2023-07-29T02:11:22;17.60;99.90
4757;DHT22;2392;52.578;13.426;2023-07-29T02:13:54;17.60;99.90
4757;DHT22;2392;52.578;13.426;2023-07-29T02:16:22;17.60;99.90
4757;DHT22;2392;52.578;13.426;2023-07-29T02:18:49;17.50;99.90
4757;DHT22;2392;52.578;13.426;2023-07-29T02:21:16;17.50;99.90
4757;DHT22;2392;52.578;13.426;2023-07-29T02:23:43;17.40;99.90
4757;DHT22;2392;52.578;13.426;2023-07-29T02:26:11;17.40;99.90
4757;DHT22;2392;52.578;13.426;2023-07-29T02:28:38;17.50;99.90
4757;DHT22;2392;52.578;13.426;2023-07-29T02:31:15;17.50;99.90
4757;DHT22;2392;52.578;13.426;2023-07-29T02:33:44;17.50;99.90
4757;DHT22;2392;52.578;13.426;2023-07-29T02:36:13;17.40;99.90
4757;DHT22;2392;52.578;13.426;2023-07-29T02:38:40;17.40;99.90
4757;DHT22;2392;52.578;13.426;2023-07-29T02:41:08;17.50;99.90
4757;DHT22;2392;52.578;13.426;2023-07-29T02:43:35;17.50;99.90
4757;DHT22;2392;52.578;13.426;2023-07-29T02:46:02;17.50;99.90
4757;DHT22;2392;52.578;13.426;2023-07-29T02:48:31;17.50;99.90
4757;DHT22;2392;52.578;13.426;2023-07-29T02:50:58;17.40;99.90
4757;DHT22;2392;52.578;13.426;2023-07-29T02:53:25;17.40;99.90
4757;DHT22;2392;52.578;13.426;2023-07-29T02:55:52;17.40;99.90
4757;DHT22;2392;52.578;13.426;2023-07-29T02:58:20;17.30;99.90
4757;DHT22;2392;52.578;13.426;2023-07-29T03:00:47;17.30;99.90
4757;DHT22;2392;52.578;13.426;2023-07-29T03:03:14;17.30;99.90
4757;DHT22;2392;52.578;13.426;2023-07-29T03:05:43;17.20;99.90
4757;DHT22;2392;52.578;13.426;2023-07-29T03:08:10;17.20;99.90
4757;DHT22;2392;52.578;13.426;2023-07-29T03:10:38;17.10;99.90
4757;DHT22;2392;52.578;13.426;2023-07-29T03:13:05;17.10;99.90
4757;DHT22;2392;52.578;13.426;2023-07-29T03:15:33;17.10;99.90
4757;DHT22;2392;52.578;13.426;2023-07-29T03:18:01;17.00;99.90
4757;DHT22;2392;52.578;13.426;2023-07-29T03:20:28;17.10;99.90
4757;DHT22;2392;52.578;13.426;2023-07-29T03:23:00;17.10;99.90
4757;DHT22;2392;52.578;13.426;2023-07-29T03:25:27;17.10;99.90
4757;DHT22;2392;52.578;13.426;2023-07-29T03:27:54;17.10;99.90
4757;DHT22;2392;52.578;13.426;2023-07-29T03:30:22;17.10;99.90
4757;DHT22;2392;52.578;13.426;2023-07-29T03:32:51;17.10;99.90
4757;DHT22;2392;52.578;13.426;2023-07-29T03:35:18;17.10;99.90
4757;DHT22;2392;52.578;13.426;2023-07-29T03:37:45;17.20;99.90
4757;DHT22;2392;52.578;13.426;2023-07-29T03:40:17;17.20;99.90
4757;DHT22;2392;52.578;13.426;2023-07-29T03:42:44;17.20;99.90
4757;DHT22;2392;52.578;13.426;2023-07-29T03:45:11;17.20;99.90
4757;DHT22;2392;52.578;13.426;2023-07-29T03:47:39;17.20;99.90
4757;DHT22;2392;52.578;13.426;2023-07-29T03:50:07;17.20;99.90
4757;DHT22;2392;52.578;13.426;2023-07-29T03:52:35;17.20;99.90
4757;DHT22;2392;52.578;13.426;2023-07-29T03:55:02;17.30;99.90
4757;DHT22;2392;52.578;13.426;2023-07-29T03:57:31;17.30;99.90
4757;DHT22;2392;52.578;13.426;2023-07-29T03:59:59;17.30;99.90
4757;DHT22;2392;52.578;13.426;2023-07-29T04:02:26;17.30;99.90
4757;DHT22;2392;52.578;13.426;2023-07-29T04:04:53;17.30;99.90
4757;DHT22;2392;52.578;13.426;2023-07-29T04:07:20;17.30;99.90
4757;DHT22;2392;52.578;13.426;2023-07-29T04:09:47;17.30;99.90
4757;DHT22;2392;52.578;13.426;2023-07-29T04:12:15;17.30;99.90
4757;DHT22;2392;52.578;13.426;2023-07-29T04:14:43;17.30;99.90
4757;DHT22;2392;52.578;13.426;2023-07-29T04:17:10;17.30;99.90
4757;DHT22;2392;52.578;13.426;2023-07-29T04:19:37;17.30;99.90
4757;DHT22;2392;52.578;13.426;2023-07-29T04:22:04;17.30;99.90
4757;DHT22;2392;52.578;13.426;2023-07-29T04:24:32;17.30;99.90
4757;DHT22;2392;52.578;13.426;2023-07-29T04:26:59;17.30;99.90
4757;DHT22;2392;52.578;13.426;2023-07-29T04:29:26;17.30;99.90
4757;DHT22;2392;52.578;13.426;2023-07-29T04:31:54;17.30;99.90
4757;DHT22;2392;52.578;13.426;2023-07-29T04:34:21;17.40;99.90
4757;DHT22;2392;52.578;13.426;2023-07-29T04:36:48;17.40;99.90
4757;DHT22;2392;52.578;13.426;2023-07-29T04:39:16;17.40;99.90
4757;DHT22;2392;52.578;13.426;2023-07-29T04:41:43;17.50;99.90
4757;DHT22;2392;52.578;13.426;2023-07-29T04:44:10;17.50;99.90
4757;DHT22;2392;52.578;13.426;2023-07-29T04:46:37;17.50;99.90
4757;DHT22;2392;52.578;13.426;2023-07-29T04:49:06;17.50;99.90
4757;DHT22;2392;52.578;13.426;2023-07-29T04:51:33;17.60;99.90
4757;DHT22;2392;52.578;13.426;2023-07-29T04:54:00;17.60;99.90
4757;DHT22;2392;52.578;13.426;2023-07-29T04:56:27;17.70;99.90
4757;DHT22;2392;52.578;13.426;2023-07-29T04:58:54;17.70;99.90
4757;DHT22;2392;52.578;13.426;2023-07-29T05:01:21;17.70;99.90
4757;DHT22;2392;52.578;13.426;2023-07-29T05:03:48;17.70;99.90
4757;DHT22;2392;52.578;13.426;2023-07-29T05:06:17;17.80;99.90
4757;DHT22;2392;52.578;13.426;2023-07-29T05:08:44;17.80;99.90
4757;DHT22;2392;52.578;13.426;2023-07-29T05:11:11;17.80;99.90
4757;DHT22;2392;52.578;13.426;2023-07-29T05:13:38;17.80;99.90
4757;DHT22;2392;52.578;13.426;2023-07-29T05:16:05;17.90;99.90
4757;DHT22;2392;52.578;13.426;2023-07-29T05:18:33;17.90;99.90
4757;DHT22;2392;52.578;13.426;2023-07-29T05:21:00;18.00;99.90
4757;DHT22;2392;52.578;13.426;2023-07-29T05:23:28;18.00;99.90
4757;DHT22;2392;52.578;13.426;2023-07-29T05:25:55;18.00;99.90
4757;DHT22;2392;52.578;13.426;2023-07-29T05:28:22;18.10;99.90
4757;DHT22;2392;52.578;13.426;2023-07-29T05:30:49;18.10;99.90
4757;DHT22;2392;52.578;13.426;2023-07-29T05:33:17;18.10;99.90
4757;DHT22;2392;52.578;13.426;2023-07-29T05:35:43;18.10;99.90
4757;DHT22;2392;52.578;13.426;2023-07-29T05:38:13;18.20;99.90
4757;DHT22;2392;52.578;13.426;2023-07-29T05:40:41;18.30;99.90
4757;DHT22;2392;52.578;13.426;2023-07-29T05:43:08;18.40;99.90
4757;DHT22;2392;52.578;13.426;2023-07-29T05:45:35;18.50;99.90
4757;DHT22;2392;52.578;13.426;2023-07-29T05:48:03;18.50;99.90
4757;DHT22;2392;52.578;13.426;2023-07-29T05:50:30;18.50;99.90
4757;DHT22;2392;52.578;13.426;2023-07-29T05:52:56;18.50;99.90
4757;DHT22;2392;52.578;13.426;2023-07-29T05:55:24;18.60;99.90
4757;DHT22;2392;52.578;13.426;2023-07-29T05:57:52;18.60;99.90
4757;DHT22;2392;52.578;13.426;2023-07-29T06:00:19;18.60;99.90
4757;DHT22;2392;52.578;13.426;2023-07-29T06:02:46;18.60;99.90
4757;DHT22;2392;52.578;13.426;2023-07-29T06:05:18;18.60;99.90
4757;DHT22;2392;52.578;13.426;2023-07-29T06:07:45;18.60;99.90
4757;DHT22;2392;52.578;13.426;2023-07-29T06:10:15;18.70;99.90
4757;DHT22;2392;52.578;13.426;2023-07-29T06:12:44;18.70;99.90
4757;DHT22;2392;52.578;13.426;2023-07-29T06:15:12;18.80;99.90
4757;DHT22;2392;52.578;13.426;2023-07-29T06:17:40;18.80;99.90
4757;DHT22;2392;52.578;13.426;2023-07-29T06:20:08;18.80;99.90
4757;DHT22;2392;52.578;13.426;2023-07-29T06:22:36;18.80;99.90
4757;DHT22;2392;52.578;13.426;2023-07-29T06:25:04;18.90;99.90
4757;DHT22;2392;52.578;13.426;2023-07-29T06:27:31;18.90;99.90
4757;DHT22;2392;52.578;13.426;2023-07-29T06:29:58;19.00;99.90
4757;DHT22;2392;52.578;13.426;2023-07-29T06:32:26;19.00;99.90
4757;DHT22;2392;52.578;13.426;2023-07-29T06:34:53;19.00;99.90
4757;DHT22;2392;52.578;13.426;2023-07-29T06:37:20;19.10;99.90
4757;DHT22;2392;52.578;13.426;2023-07-29T06:39:47;19.10;99.90
4757;DHT22;2392;52.578;13.426;2023-07-29T06:42:14;19.20;99.90
4757;DHT22;2392;52.578;13.426;2023-07-29T06:44:41;19.20;99.90
4757;DHT22;2392;52.578;13.426;2023-07-29T06:47:08;19.20;99.90
4757;DHT22;2392;52.578;13.426;2023-07-29T06:49:37;19.20;99.90
4757;DHT22;2392;52.578;13.426;2023-07-29T06:52:04;19.30;99.90
4757;DHT22;2392;52.578;13.426;2023-07-29T06:54:31;19.40;99.90
4757;DHT22;2392;52.578;13.426;2023-07-29T06:56:58;19.40;99.90
4757;DHT22;2392;52.578;13.426;2023-07-29T06:59:25;19.50;99.90
4757;DHT22;2392;52.578;13.426;2023-07-29T07:01:52;19.60;99.90
4757;DHT22;2392;52.578;13.426;2023-07-29T07:04:19;19.60;99.90
4757;DHT22;2392;52.578;13.426;2023-07-29T07:06:47;19.70;99.90
4757;DHT22;2392;52.578;13.426;2023-07-29T07:09:14;19.70;99.90
4757;DHT22;2392;52.578;13.426;2023-07-29T07:11:41;19.80;99.90
4757;DHT22;2392;52.578;13.426;2023-07-29T07:14:08;19.90;99.90
4757;DHT22;2392;52.578;13.426;2023-07-29T07:16:35;19.90;99.90
4757;DHT22;2392;52.578;13.426;2023-07-29T07:19:05;20.00;99.90
4757;DHT22;2392;52.578;13.426;2023-07-29T07:21:32;20.00;99.90
4757;DHT22;2392;52.578;13.426;2023-07-29T07:24:00;20.10;99.90
4757;DHT22;2392;52.578;13.426;2023-07-29T07:26:27;20.20;99.90
4757;DHT22;2392;52.578;13.426;2023-07-29T07:28:54;20.30;99.90
4757;DHT22;2392;52.578;13.426;2023-07-29T07:31:22;20.40;99.90
4757;DHT22;2392;52.578;13.426;2023-07-29T07:33:49;20.30;99.90
4757;DHT22;2392;52.578;13.426;2023-07-29T07:36:16;20.40;99.90
4757;DHT22;2392;52.578;13.426;2023-07-29T07:38:43;20.50;99.90
4757;DHT22;2392;52.578;13.426;2023-07-29T07:41:12;20.60;99.90
4757;DHT22;2392;52.578;13.426;2023-07-29T07:43:38;20.70;99.90
4757;DHT22;2392;52.578;13.426;2023-07-29T07:46:06;20.60;99.90
4757;DHT22;2392;52.578;13.426;2023-07-29T07:48:33;20.70;99.90
4757;DHT22;2392;52.578;13.426;2023-07-29T07:51:00;20.70;99.90
4757;DHT22;2392;52.578;13.426;2023-07-29T07:53:27;20.80;99.90
4757;DHT22;2392;52.578;13.426;2023-07-29T07:55:54;20.80;99.90
4757;DHT22;2392;52.578;13.426;2023-07-29T07:58:22;20.80;99.90
4757;DHT22;2392;52.578;13.426;2023-07-29T08:00:49;20.90;99.90
4757;DHT22;2392;52.578;13.426;2023-07-29T08:03:17;21.00;99.90
4757;DHT22;2392;52.578;13.426;2023-07-29T08:05:44;21.00;99.90
4757;DHT22;2392;52.578;13.426;2023-07-29T08:08:13;21.10;99.90
4757;DHT22;2392;52.578;13.426;2023-07-29T08:10:40;21.10;99.90
4757;DHT22;2392;52.578;13.426;2023-07-29T08:13:07;21.20;99.90
4757;DHT22;2392;52.578;13.426;2023-07-29T08:15:35;21.20;99.90
4757;DHT22;2392;52.578;13.426;2023-07-29T08:18:02;21.20;99.90
4757;DHT22;2392;52.578;13.426;2023-07-29T08:20:29;21.20;99.90
4757;DHT22;2392;52.578;13.426;2023-07-29T08:22:56;21.20;99.90
4757;DHT22;2392;52.578;13.426;2023-07-29T08:25:23;21.30;99.90
4757;DHT22;2392;52.578;13.426;2023-07-29T08:27:50;21.40;99.90
4757;DHT22;2392;52.578;13.426;2023-07-29T08:30:17;21.50;99.90
4757;DHT22;2392;52.578;13.426;2023-07-29T08:32:46;21.60;99.90
4757;DHT22;2392;52.578;13.426;2023-07-29T08:35:14;21.60;99.90
4757;DHT22;2392;52.578;13.426;2023-07-29T08:37:41;21.60;99.90
4757;DHT22;2392;52.578;13.426;2023-07-29T08:40:09;21.60;99.90
4757;DHT22;2392;52.578;13.426;2023-07-29T08:42:37;21.60;99.90
4757;DHT22;2392;52.578;13.426;2023-07-29T08:45:07;21.60;99.90
4757;DHT22;2392;52.578;13.426;2023-07-29T08:47:34;21.60;99.90
4757;DHT22;2392;52.578;13.426;2023-07-29T08:50:03;21.70;99.90
4757;DHT22;2392;52.578;13.426;2023-07-29T08:52:32;21.80;99.90
4757;DHT22;2392;52.578;13.426;2023-07-29T08:55:00;21.90;99.90
4757;DHT22;2392;52.578;13.426;2023-07-29T08:57:28;21.90;99.90
4757;DHT22;2392;52.578;13.426;2023-07-29T08:59:56;21.90;99.90
4757;DHT22;2392;52.578;13.426;2023-07-29T09:02:25;21.90;99.90
4757;DHT22;2392;52.578;13.426;2023-07-29T09:04:52;21.80;99.90
4757;DHT22;2392;52.578;13.426;2023-07-29T09:07:20;21.90;99.90
4757;DHT22;2392;52.578;13.426;2023-07-29T09:09:47;21.80;99.90
4757;DHT22;2392;52.578;13.426;2023-07-29T09:12:15;21.70;99.90
4757;DHT22;2392;52.578;13.426;2023-07-29T09:14:42;21.70;99.90
4757;DHT22;2392;52.578;13.426;2023-07-29T09:17:09;21.80;99.90
4757;DHT22;2392;52.578;13.426;2023-07-29T09:19:36;21.80;99.90
4757;DHT22;2392;52.578;13.426;2023-07-29T09:22:04;21.90;99.90
4757;DHT22;2392;52.578;13.426;2023-07-29T09:24:33;22.00;99.90
4757;DHT22;2392;52.578;13.426;2023-07-29T09:27:00;22.00;99.90
4757;DHT22;2392;52.578;13.426;2023-07-29T09:29:28;22.20;99.90
4757;DHT22;2392;52.578;13.426;2023-07-29T09:32:17;22.20;99.90
4757;DHT22;2392;52.578;13.426;2023-07-29T09:34:45;22.30;99.90
4757;DHT22;2392;52.578;13.426;2023-07-29T09:37:17;22.40;99.90
4757;DHT22;2392;52.578;13.426;2023-07-29T09:39:46;22.50;99.90
4757;DHT22;2392;52.578;13.426;2023-07-29T09:42:17;22.60;99.90
4757;DHT22;2392;52.578;13.426;2023-07-29T09:44:45;22.70;99.90
4757;DHT22;2392;52.578;13.426;2023-07-29T09:47:19;22.70;99.90
4757;DHT22;2392;52.578;13.426;2023-07-29T09:49:48;22.70;99.90
4757;DHT22;2392;52.578;13.426;2023-07-29T09:52:16;22.80;99.90
4757;DHT22;2392;52.578;13.426;2023-07-29T09:54:43;22.90;99.90
4757;DHT22;2392;52.578;13.426;2023-07-29T09:57:17;22.90;99.90
4757;DHT22;2392;52.578;13.426;2023-07-29T09:59:54;23.00;99.90
4757;DHT22;2392;52.578;13.426;2023-07-29T10:02:22;23.10;99.90
4757;DHT22;2392;52.578;13.426;2023-07-29T10:04:51;23.10;99.90
4757;DHT22;2392;52.578;13.426;2023-07-29T10:07:19;23.10;99.90
4757;DHT22;2392;52.578;13.426;2023-07-29T10:09:47;23.00;99.90
4757;DHT22;2392;52.578;13.426;2023-07-29T10:12:16;23.00;99.90
4757;DHT22;2392;52.578;13.426;2023-07-29T10:14:44;23.10;99.90
4757;DHT22;2392;52.578;13.426;2023-07-29T10:17:14;23.10;99.90
4757;DHT22;2392;52.578;13.426;2023-07-29T10:19:43;23.10;99.90
4757;DHT22;2392;52.578;13.426;2023-07-29T10:22:12;23.10;99.90
4757;DHT22;2392;52.578;13.426;2023-07-29T10:24:41;23.10;99.90
4757;DHT22;2392;52.578;13.426;2023-07-29T10:27:11;23.10;99.90
4757;DHT22;2392;52.578;13.426;2023-07-29T10:29:44;23.10;99.90
4757;DHT22;2392;52.578;13.426;2023-07-29T10:32:12;23.00;99.90
4757;DHT22;2392;52.578;13.426;2023-07-29T10:34:39;22.90;99.90
4757;DHT22;2392;52.578;13.426;2023-07-29T10:37:08;22.70;99.90
4757;DHT22;2392;52.578;13.426;2023-07-29T10:39:38;22.70;99.90
4757;DHT22;2392;52.578;13.426;2023-07-29T10:42:06;22.70;99.90
4757;DHT22;2392;52.578;13.426;2023-07-29T10:44:49;22.70;99.90
4757;DHT22;2392;52.578;13.426;2023-07-29T10:47:19;22.90;99.90
4757;DHT22;2392;52.578;13.426;2023-07-29T10:49:49;23.00;99.90
4757;DHT22;2392;52.578;13.426;2023-07-29T10:52:29;23.20;99.90
4757;DHT22;2392;52.578;13.426;2023-07-29T10:54:56;23.40;99.90
4757;DHT22;2392;52.578;13.426;2023-07-29T10:57:31;23.40;99.90
4757;DHT22;2392;52.578;13.426;2023-07-29T11:00:01;23.40;99.90
4757;DHT22;2392;52.578;13.426;2023-07-29T11:02:31;23.40;99.90
4757;DHT22;2392;52.578;13.426;2023-07-29T11:04:59;23.30;99.90
4757;DHT22;2392;52.578;13.426;2023-07-29T11:07:27;23.10;99.90
4757;DHT22;2392;52.578;13.426;2023-07-29T11:10:01;22.90;99.90
4757;DHT22;2392;52.578;13.426;2023-07-29T11:12:34;22.70;99.90
4757;DHT22;2392;52.578;13.426;2023-07-29T11:15:04;22.60;99.90
4757;DHT22;2392;52.578;13.426;2023-07-29T11:17:33;22.60;99.90
4757;DHT22;2392;52.578;13.426;2023-07-29T11:20:01;22.50;99.90
4757;DHT22;2392;52.578;13.426;2023-07-29T11:22:29;22.50;99.90
4757;DHT22;2392;52.578;13.426;2023-07-29T11:24:57;22.20;99.90
4757;DHT22;2392;52.578;13.426;2023-07-29T11:27:24;21.80;99.90
4757;DHT22;2392;52.578;13.426;2023-07-29T11:29:56;21.30;99.90
4757;DHT22;2392;52.578;13.426;2023-07-29T11:32:26;20.80;99.90
4757;DHT22;2392;52.578;13.426;2023-07-29T11:34:53;20.40;99.90
4757;DHT22;2392;52.578;13.426;2023-07-29T11:37:20;20.20;99.90
4757;DHT22;2392;52.578;13.426;2023-07-29T11:39:47;20.00;99.90
4757;DHT22;2392;52.578;13.426;2023-07-29T11:42:15;19.90;99.90
4757;DHT22;2392;52.578;13.426;2023-07-29T11:44:42;19.90;99.90
4757;DHT22;2392;52.578;13.426;2023-07-29T11:47:11;19.80;99.90
4757;DHT22;2392;52.578;13.426;2023-07-29T11:49:40;19.80;99.90
4757;DHT22;2392;52.578;13.426;2023-07-29T11:52:09;19.90;99.90
4757;DHT22;2392;52.578;13.426;2023-07-29T11:54:39;19.90;99.90
4757;DHT22;2392;52.578;13.426;2023-07-29T11:57:11;19.90;99.90
4757;DHT22;2392;52.578;13.426;2023-07-29T11:59:42;19.90;99.90
4757;DHT22;2392;52.578;13.426;2023-07-29T12:02:11;19.90;99.90
4757;DHT22;2392;52.578;13.426;2023-07-29T12:04:41;19.90;99.90
4757;DHT22;2392;52.578;13.426;2023-07-29T12:07:09;19.90;99.90
4757;DHT22;2392;52.578;13.426;2023-07-29T12:09:36;19.90;99.90
4757;DHT22;2392;52.578;13.426;2023-07-29T12:12:04;20.00;99.90
4757;DHT22;2392;52.578;13.426;2023-07-29T12:14:31;20.00;99.90
4757;DHT22;2392;52.578;13.426;2023-07-29T12:17:00;20.00;99.90
4757;DHT22;2392;52.578;13.426;2023-07-29T12:19:32;20.00;99.90
4757;DHT22;2392;52.578;13.426;2023-07-29T12:22:02;20.10;99.90
4757;DHT22;2392;52.578;13.426;2023-07-29T12:24:30;20.10;99.90
4757;DHT22;2392;52.578;13.426;2023-07-29T12:26:57;20.00;99.90
4757;DHT22;2392;52.578;13.426;2023-07-29T12:29:25;20.10;99.90
4757;DHT22;2392;52.578;13.426;2023-07-29T12:31:58;20.20;99.90
4757;DHT22;2392;52.578;13.426;2023-07-29T12:34:26;20.20;99.90
4757;DHT22;2392;52.578;13.426;2023-07-29T12:36:54;20.20;99.90
4757;DHT22;2392;52.578;13.426;2023-07-29T12:39:25;20.20;99.90
4757;DHT22;2392;52.578;13.426;2023-07-29T12:41:53;20.20;99.90
4757;DHT22;2392;52.578;13.426;2023-07-29T12:44:22;20.10;99.90
4757;DHT22;2392;52.578;13.426;2023-07-29T12:46:49;20.20;99.90
4757;DHT22;2392;52.578;13.426;2023-07-29T12:49:16;20.30;99.90
4757;DHT22;2392;52.578;13.426;2023-07-29T12:51:43;20.40;99.90
4757;DHT22;2392;52.578;13.426;2023-07-29T12:54:10;20.60;99.90
4757;DHT22;2392;52.578;13.426;2023-07-29T12:56:39;20.70;99.90
4757;DHT22;2392;52.578;13.426;2023-07-29T12:59:06;20.80;99.90
4757;DHT22;2392;52.578;13.426;2023-07-29T13:01:33;21.00;99.90
4757;DHT22;2392;52.578;13.426;2023-07-29T13:04:00;21.20;99.90
4757;DHT22;2392;52.578;13.426;2023-07-29T13:06:27;21.40;99.90
4757;DHT22;2392;52.578;13.426;2023-07-29T13:08:54;21.60;99.90
4757;DHT22;2392;52.578;13.426;2023-07-29T13:11:22;21.70;99.90
4757;DHT22;2392;52.578;13.426;2023-07-29T13:13:50;21.80;99.90
4757;DHT22;2392;52.578;13.426;2023-07-29T13:16:17;21.80;99.90
4757;DHT22;2392;52.578;13.426;2023-07-29T13:18:45;21.90;99.90
4757;DHT22;2392;52.578;13.426;2023-07-29T13:21:12;21.90;99.90
4757;DHT22;2392;52.578;13.426;2023-07-29T13:23:39;21.90;99.90
4757;DHT22;2392;52.578;13.426;2023-07-29T13:26:06;22.00;99.90
4757;DHT22;2392;52.578;13.426;2023-07-29T13:28:33;22.00;99.90
4757;DHT22;2392;52.578;13.426;2023-07-29T13:31:02;21.90;99.90
4757;DHT22;2392;52.578;13.426;2023-07-29T13:33:29;21.80;99.90
4757;DHT22;2392;52.578;13.426;2023-07-29T13:35:59;21.80;99.90
4757;DHT22;2392;52.578;13.426;2023-07-29T13:38:28;21.70;99.90
4757;DHT22;2392;52.578;13.426;2023-07-29T13:40:55;21.60;99.90
4757;DHT22;2392;52.578;13.426;2023-07-29T13:43:23;21.70;99.90
4757;DHT22;2392;52.578;13.426;2023-07-29T13:45:51;21.70;99.90
4757;DHT22;2392;52.578;13.426;2023-07-29T13:48:19;21.70;99.90
4757;DHT22;2392;52.578;13.426;2023-07-29T13:50:46;21.90;99.90
4757;DHT22;2392;52.578;13.426;2023-07-29T13:53:13;22.10;99.90
4757;DHT22;2392;52.578;13.426;2023-07-29T13:55:40;22.40;99.90
4757;DHT22;2392;52.578;13.426;2023-07-29T13:58:07;22.60;99.90
4757;DHT22;2392;52.578;13.426;2023-07-29T14:00:34;22.70;99.90
4757;DHT22;2392;52.578;13.426;2023-07-29T14:03:01;22.70;99.90
4757;DHT22;2392;52.578;13.426;2023-07-29T14:05:30;22.60;99.90
4757;DHT22;2392;52.578;13.426;2023-07-29T14:07:57;22.70;99.90
4757;DHT22;2392;52.578;13.426;2023-07-29T14:10:26;22.70;99.90
4757;DHT22;2392;52.578;13.426;2023-07-29T14:12:53;22.70;99.90
4757;DHT22;2392;52.578;13.426;2023-07-29T14:15:21;22.80;99.90
4757;DHT22;2392;52.578;13.426;2023-07-29T14:17:48;22.70;99.90
4757;DHT22;2392;52.578;13.426;2023-07-29T14:20:15;22.80;99.90
4757;DHT22;2392;52.578;13.426;2023-07-29T14:22:44;22.80;99.90
4757;DHT22;2392;52.578;13.426;2023-07-29T14:25:11;22.90;99.90
4757;DHT22;2392;52.578;13.426;2023-07-29T14:27:38;22.80;99.90
4757;DHT22;2392;52.578;13.426;2023-07-29T14:30:06;22.80;99.90
4757;DHT22;2392;52.578;13.426;2023-07-29T14:32:33;22.70;99.90
4757;DHT22;2392;52.578;13.426;2023-07-29T14:35:00;22.70;99.90
4757;DHT22;2392;52.578;13.426;2023-07-29T14:37:29;22.70;99.90
4757;DHT22;2392;52.578;13.426;2023-07-29T14:40:01;22.80;99.90
4757;DHT22;2392;52.578;13.426;2023-07-29T14:42:28;22.90;99.90
4757;DHT22;2392;52.578;13.426;2023-07-29T14:44:55;23.10;99.90
4757;DHT22;2392;52.578;13.426;2023-07-29T14:47:22;23.20;99.90
4757;DHT22;2392;52.578;13.426;2023-07-29T14:49:49;23.20;99.90
4757;DHT22;2392;52.578;13.426;2023-07-29T14:52:16;23.20;99.90
4757;DHT22;2392;52.578;13.426;2023-07-29T14:54:43;23.20;99.90
4757;DHT22;2392;52.578;13.426;2023-07-29T14:57:12;23.20;99.90
4757;DHT22;2392;52.578;13.426;2023-07-29T14:59:39;23.00;99.90
4757;DHT22;2392;52.578;13.426;2023-07-29T15:02:06;22.90;99.90
4757;DHT22;2392;52.578;13.426;2023-07-29T15:04:34;22.80;99.90
4757;DHT22;2392;52.578;13.426;2023-07-29T15:07:02;22.80;99.90
4757;DHT22;2392;52.578;13.426;2023-07-29T15:09:29;22.70;99.90
4757;DHT22;2392;52.578;13.426;2023-07-29T15:11:59;22.60;99.90
4757;DHT22;2392;52.578;13.426;2023-07-29T15:14:27;22.50;99.90
4757;DHT22;2392;52.578;13.426;2023-07-29T15:16:55;22.40;99.90
4757;DHT22;2392;52.578;13.426;2023-07-29T15:19:22;22.40;99.90
4757;DHT22;2392;52.578;13.426;2023-07-29T15:21:49;22.30;99.90
4757;DHT22;2392;52.578;13.426;2023-07-29T15:24:16;22.30;99.90
4757;DHT22;2392;52.578;13.426;2023-07-29T15:26:43;22.30;99.90
4757;DHT22;2392;52.578;13.426;2023-07-29T15:29:10;22.20;99.90
4757;DHT22;2392;52.578;13.426;2023-07-29T15:31:40;22.20;99.90
4757;DHT22;2392;52.578;13.426;2023-07-29T15:34:07;22.10;99.90
4757;DHT22;2392;52.578;13.426;2023-07-29T15:36:34;21.90;99.90
4757;DHT22;2392;52.578;13.426;2023-07-29T15:39:01;21.80;99.90
4757;DHT22;2392;52.578;13.426;2023-07-29T15:41:31;21.60;99.90
4757;DHT22;2392;52.578;13.426;2023-07-29T15:43:58;21.40;99.90
4757;DHT22;2392;52.578;13.426;2023-07-29T15:46:25;21.20;99.90
4757;DHT22;2392;52.578;13.426;2023-07-29T15:48:54;20.90;99.90
4757;DHT22;2392;52.578;13.426;2023-07-29T15:51:25;20.70;99.90
4757;DHT22;2392;52.578;13.426;2023-07-29T15:53:56;20.50;99.90